createdAt,value
2022-08-20T00:02:13.857Z,100.00
2022-08-20T00:04:43.131Z,100.00
2022-08-20T00:07:11.063Z,100.00
2022-08-20T00:09:38.925Z,100.00
2022-08-20T00:12:07.538Z,100.00
2022-08-20T00:14:36.417Z,100.00
2022-08-20T00:17:05.868Z,100.00
2022-08-20T00:19:33.719Z,100.00
2022-08-20T00:22:02.983Z,100.00
2022-08-20T00:24:31.284Z,100.00
2022-08-20T00:26:59.145Z,100.00
2022-08-20T00:29:27.086Z,100.00
2022-08-20T00:31:54.923Z,100.00
2022-08-20T00:34:22.953Z,100.00
2022-08-20T00:36:50.791Z,100.00
2022-08-20T00:39:19.942Z,100.00
2022-08-20T00:41:47.791Z,100.00
2022-08-20T00:44:18.617Z,100.00
2022-08-20T00:46:47.872Z,100.00
2022-08-20T00:49:18.716Z,100.00
2022-08-20T00:51:50.237Z,100.00
2022-08-20T00:54:23.413Z,100.00
2022-08-20T00:56:57.165Z,100.00
2022-08-20T00:59:28.058Z,100.00
2022-08-20T01:01:56.671Z,100.00
2022-08-20T01:04:26.430Z,100.00
2022-08-20T01:06:55.212Z,100.00
2022-08-20T01:09:49.767Z,100.00
2022-08-20T01:12:28.411Z,100.00
2022-08-20T01:14:59.023Z,100.00
2022-08-20T01:17:29.871Z,100.00
2022-08-20T01:20:02.415Z,100.00
2022-08-20T01:22:57.316Z,100.00
2022-08-20T01:25:33.492Z,100.00
2022-08-20T01:28:03.302Z,100.00
2022-08-20T01:30:34.983Z,100.00
2022-08-20T01:33:02.980Z,100.00
2022-08-20T01:35:31.124Z,100.00
2022-08-20T01:37:58.962Z,100.00
2022-08-20T01:40:45.514Z,100.00
2022-08-20T01:43:15.191Z,100.00
2022-08-20T01:45:45.197Z,100.00
2022-08-20T01:48:14.117Z,100.00
2022-08-20T01:50:48.731Z,100.00
2022-08-20T01:53:23.241Z,100.00
2022-08-20T01:55:51.271Z,100.00
2022-08-20T01:58:20.543Z,100.00
2022-08-20T02:00:48.558Z,100.00
2022-08-20T02:03:16.373Z,100.00
2022-08-20T02:05:45.228Z,100.00
2022-08-20T02:08:13.201Z,100.00
2022-08-20T02:10:41.578Z,100.00
2022-08-20T02:13:10.215Z,100.00
2022-08-20T02:15:39.944Z,100.00
2022-08-20T02:18:14.304Z,100.00
2022-08-20T02:20:44.487Z,100.00
2022-08-20T02:23:13.209Z,100.00
2022-08-20T02:25:43.233Z,100.00
2022-08-20T02:28:14.216Z,100.00
2022-08-20T02:30:47.030Z,100.00
2022-08-20T02:33:17.315Z,100.00
2022-08-20T02:35:47.976Z,100.00
2022-08-20T02:38:17.565Z,100.00
2022-08-20T02:40:49.126Z,100.00
2022-08-20T02:43:18.379Z,100.00
2022-08-20T02:45:48.242Z,100.00
2022-08-20T02:48:22.759Z,100.00
2022-08-20T02:50:56.821Z,100.00
2022-08-20T02:53:25.558Z,100.00
2022-08-20T02:55:53.695Z,100.00
2022-08-20T02:58:22.648Z,100.00
2022-08-20T03:00:51.993Z,100.00
2022-08-20T03:03:22.718Z,100.00
2022-08-20T03:05:52.628Z,100.00
2022-08-20T03:08:21.757Z,100.00
2022-08-20T03:10:50.576Z,100.00
2022-08-20T03:13:19.921Z,100.00
2022-08-20T03:15:56.477Z,100.00
2022-08-20T03:18:28.889Z,100.00
2022-08-20T03:20:56.895Z,100.00
2022-08-20T03:23:25.167Z,100.00
2022-08-20T03:25:53.098Z,100.00
2022-08-20T03:28:21.170Z,100.00
2022-08-20T03:30:50.467Z,100.00
2022-08-20T03:33:20.317Z,100.00
2022-08-20T03:35:48.398Z,100.00
2022-08-20T03:38:18.677Z,100.00
2022-08-20T03:41:00.856Z,100.00
2022-08-20T03:43:29.215Z,100.00
2022-08-20T03:45:57.165Z,100.00
2022-08-20T03:48:26.631Z,100.00
2022-08-20T03:50:56.702Z,100.00
2022-08-20T03:53:24.665Z,100.00
2022-08-20T03:56:00.455Z,100.00
2022-08-20T03:58:35.428Z,100.00
2022-08-20T04:01:06.728Z,100.00
2022-08-20T04:03:36.705Z,100.00
2022-08-20T04:06:05.199Z,100.00
2022-08-20T04:08:33.088Z,100.00
2022-08-20T04:11:01.201Z,100.00
2022-08-20T04:13:31.679Z,100.00
2022-08-20T04:16:01.884Z,100.00
2022-08-20T04:18:29.977Z,100.00
2022-08-20T04:20:59.250Z,100.00
2022-08-20T04:23:27.074Z,100.00
2022-08-20T04:25:56.631Z,100.00
2022-08-20T04:28:26.945Z,100.00
2022-08-20T04:30:55.892Z,100.00
2022-08-20T04:33:35.334Z,100.00
2022-08-20T04:36:07.022Z,100.00
2022-08-20T04:38:50.448Z,100.00
2022-08-20T04:41:22.811Z,100.00
2022-08-20T04:43:53.144Z,100.00
2022-08-20T04:46:23.655Z,100.00
2022-08-20T04:48:51.611Z,100.00
2022-08-20T04:51:22.903Z,100.00
2022-08-20T04:53:53.555Z,100.00
2022-08-20T04:56:24.028Z,100.00
2022-08-20T04:58:53.295Z,100.00
2022-08-20T05:01:21.948Z,100.00
2022-08-20T05:03:49.983Z,100.00
2022-08-20T05:06:19.921Z,100.00
2022-08-20T05:08:48.162Z,100.00
2022-08-20T05:11:36.049Z,100.00
2022-08-20T05:14:05.708Z,100.00
2022-08-20T05:16:38.332Z,100.00
2022-08-20T05:19:08.748Z,100.00
2022-08-20T05:21:38.239Z,100.00
2022-08-20T05:24:06.777Z,100.00
2022-08-20T05:26:34.960Z,100.00
2022-08-20T05:29:04.938Z,100.00
2022-08-20T05:31:33.689Z,100.00
2022-08-20T05:34:09.765Z,100.00
2022-08-20T05:36:41.536Z,100.00
2022-08-20T05:39:10.420Z,100.00
2022-08-20T05:41:38.963Z,100.00
2022-08-20T05:44:10.130Z,100.00
2022-08-20T05:46:40.477Z,100.00
2022-08-20T05:49:08.618Z,100.00
2022-08-20T05:51:37.496Z,100.00
2022-08-20T05:54:07.958Z,100.00
2022-08-20T05:56:36.061Z,100.00
2022-08-20T05:59:06.020Z,100.00
2022-08-20T06:01:35.393Z,100.00
2022-08-20T06:04:21.352Z,100.00
2022-08-20T06:06:51.158Z,100.00
2022-08-20T06:09:31.572Z,100.00
2022-08-20T06:12:01.799Z,100.00
2022-08-20T06:14:29.873Z,100.00
2022-08-20T06:17:04.090Z,100.00
2022-08-20T06:19:33.256Z,100.00
2022-08-20T06:22:02.102Z,100.00
2022-08-20T06:24:32.906Z,100.00
2022-08-20T06:27:02.775Z,100.00
2022-08-20T06:29:33.416Z,100.00
2022-08-20T06:32:02.049Z,100.00
2022-08-20T06:34:31.233Z,100.00
2022-08-20T06:37:00.162Z,100.00
2022-08-20T06:39:29.210Z,100.00
2022-08-20T06:41:59.551Z,100.00
2022-08-20T06:44:28.545Z,100.00
2022-08-20T06:47:00.842Z,100.00
2022-08-20T06:49:28.773Z,100.00
2022-08-20T06:52:03.471Z,100.00
2022-08-20T06:54:32.702Z,100.00
2022-08-20T06:57:02.206Z,100.00
2022-08-20T06:59:30.171Z,100.00
2022-08-20T07:01:58.075Z,100.00
2022-08-20T07:04:27.253Z,100.00
2022-08-20T07:06:55.650Z,100.00
2022-08-20T07:09:23.514Z,100.00
2022-08-20T07:11:52.273Z,100.00
2022-08-20T07:14:22.301Z,100.00
2022-08-20T07:16:50.599Z,100.00
2022-08-20T07:19:18.664Z,100.00
2022-08-20T07:21:47.640Z,100.00
2022-08-20T07:24:15.527Z,100.00
2022-08-20T07:26:43.824Z,100.00
2022-08-20T07:29:11.702Z,100.00
2022-08-20T07:31:58.241Z,100.00
2022-08-20T07:34:26.102Z,100.00
2022-08-20T07:36:53.944Z,100.00
2022-08-20T07:39:22.883Z,100.00
2022-08-20T07:42:03.123Z,100.00
2022-08-20T07:44:31.404Z,100.00
2022-08-20T07:47:01.037Z,100.00
2022-08-20T07:49:28.884Z,100.00
2022-08-20T07:51:56.868Z,100.00
2022-08-20T07:54:24.923Z,100.00
2022-08-20T07:56:52.842Z,100.00
2022-08-20T07:59:20.705Z,100.00
2022-08-20T08:01:49.176Z,100.00
2022-08-20T08:04:18.414Z,100.00
2022-08-20T08:06:46.252Z,100.00
2022-08-20T08:09:15.585Z,100.00
2022-08-20T08:11:50.352Z,100.00
2022-08-20T08:14:23.599Z,100.00
2022-08-20T08:16:51.957Z,100.00
2022-08-20T08:19:21.957Z,100.00
2022-08-20T08:21:50.018Z,100.00
2022-08-20T08:24:21.023Z,100.00
2022-08-20T08:26:50.830Z,100.00
2022-08-20T08:29:18.976Z,100.00
2022-08-20T08:31:46.892Z,99.79
2022-08-20T08:34:25.384Z,98.55
2022-08-20T08:36:54.613Z,97.98
2022-08-20T08:39:23.978Z,98.58
2022-08-20T08:41:55.062Z,99.06
2022-08-20T08:44:27.141Z,99.17
2022-08-20T08:46:58.124Z,97.64
2022-08-20T08:49:37.526Z,97.60
2022-08-20T08:52:14.794Z,97.16
2022-08-20T08:54:47.333Z,97.02
2022-08-20T08:57:15.722Z,96.31
2022-08-20T08:59:58.176Z,95.71
2022-08-20T09:02:32.239Z,96.19
2022-08-20T09:05:03.397Z,96.03
2022-08-20T09:07:34.693Z,94.66
2022-08-20T09:10:03.233Z,92.14
2022-08-20T09:12:31.253Z,88.30
2022-08-20T09:14:59.106Z,87.29
2022-08-20T09:17:26.932Z,87.87
2022-08-20T09:19:54.744Z,86.93
2022-08-20T09:22:25.938Z,86.84
2022-08-20T09:24:56.282Z,85.08
2022-08-20T09:27:24.120Z,84.67
2022-08-20T09:29:53.460Z,85.20
2022-08-20T09:32:24.550Z,85.37
2022-08-20T09:34:56.882Z,84.39
2022-08-20T09:37:26.662Z,84.76
2022-08-20T09:39:56.412Z,84.99
2022-08-20T09:42:26.158Z,85.19
2022-08-20T09:44:54.341Z,84.86
2022-08-20T09:47:22.811Z,84.47
2022-08-20T09:49:51.047Z,83.46
2022-08-20T09:52:24.598Z,83.00
2022-08-20T09:54:58.171Z,83.21
2022-08-20T09:57:27.422Z,82.95
2022-08-20T09:59:58.148Z,82.73
2022-08-20T10:02:26.155Z,82.65
2022-08-20T10:04:54.119Z,82.05
2022-08-20T10:07:21.944Z,81.19
2022-08-20T10:09:49.748Z,79.85
2022-08-20T10:12:18.981Z,79.09
2022-08-20T10:14:46.770Z,78.42
2022-08-20T10:17:15.605Z,78.10
2022-08-20T10:19:43.435Z,76.69
2022-08-20T10:22:12.397Z,76.70
2022-08-20T10:24:40.216Z,75.80
2022-08-20T10:27:08.197Z,75.53
2022-08-20T10:29:37.409Z,75.26
2022-08-20T10:32:13.270Z,75.89
2022-08-20T10:34:41.768Z,76.17
2022-08-20T10:37:09.886Z,73.31
2022-08-20T10:39:37.735Z,73.28
2022-08-20T10:42:05.791Z,73.18
2022-08-20T10:44:33.636Z,73.25
2022-08-20T10:47:14.497Z,72.61
2022-08-20T10:49:42.440Z,73.09
2022-08-20T10:52:10.254Z,73.24
2022-08-20T10:54:41.412Z,73.65
2022-08-20T10:57:10.939Z,73.50
2022-08-20T10:59:40.486Z,73.79
2022-08-20T11:02:09.920Z,73.03
2022-08-20T11:04:38.105Z,71.64
2022-08-20T11:07:13.950Z,71.08
2022-08-20T11:09:42.071Z,70.21
2022-08-20T11:12:10.404Z,70.44
2022-08-20T11:14:38.285Z,70.86
2022-08-20T11:17:07.080Z,70.85
2022-08-20T11:19:40.804Z,70.49
2022-08-20T11:22:09.279Z,69.91
2022-08-20T11:24:37.872Z,68.99
2022-08-20T11:27:08.650Z,68.65
2022-08-20T11:29:36.942Z,69.23
2022-08-20T11:32:06.536Z,69.91
2022-08-20T11:34:36.300Z,72.54
2022-08-20T11:37:04.265Z,73.80
2022-08-20T11:39:32.088Z,75.22
2022-08-20T11:41:59.940Z,76.88
2022-08-20T11:44:27.857Z,78.87
2022-08-20T11:46:58.271Z,80.26
2022-08-20T11:49:26.194Z,80.52
2022-08-20T11:51:55.350Z,80.77
2022-08-20T11:54:23.194Z,81.10
2022-08-20T11:56:51.153Z,81.05
2022-08-20T11:59:18.999Z,80.87
2022-08-20T12:02:02.957Z,80.78
2022-08-20T12:04:36.359Z,80.39
2022-08-20T12:07:14.736Z,79.47
2022-08-20T12:09:51.040Z,78.67
2022-08-20T12:12:22.380Z,78.58
2022-08-20T12:14:50.186Z,77.58
2022-08-20T12:17:21.406Z,77.46
2022-08-20T12:19:49.255Z,76.61
2022-08-20T12:22:24.368Z,75.79
2022-08-20T12:24:54.163Z,74.62
2022-08-20T12:27:24.297Z,74.03
2022-08-20T12:29:53.528Z,74.00
2022-08-20T12:32:22.042Z,75.15
2022-08-20T12:34:50.117Z,73.98
2022-08-20T12:37:21.424Z,74.81
2022-08-20T12:39:51.250Z,75.67
2022-08-20T12:42:20.051Z,76.31
2022-08-20T12:44:48.578Z,77.07
2022-08-20T12:47:19.250Z,76.94
2022-08-20T12:49:49.268Z,77.26
2022-08-20T12:52:19.915Z,77.02
2022-08-20T12:54:48.252Z,77.25
2022-08-20T12:57:17.134Z,77.95
2022-08-20T12:59:44.947Z,77.68
2022-08-20T13:02:15.777Z,77.35
2022-08-20T13:04:47.123Z,77.16
2022-08-20T13:07:16.175Z,76.08
2022-08-20T13:09:45.560Z,76.65
2022-08-20T13:12:14.309Z,77.31
2022-08-20T13:14:42.752Z,76.74
2022-08-20T13:17:11.233Z,76.53
2022-08-20T13:19:40.057Z,76.08
2022-08-20T13:22:07.942Z,75.79
2022-08-20T13:24:35.709Z,74.74
2022-08-20T13:27:10.136Z,73.21
2022-08-20T13:29:38.099Z,72.52
2022-08-20T13:32:06.686Z,72.51
2022-08-20T13:34:34.516Z,72.58
2022-08-20T13:37:02.459Z,72.31
2022-08-20T13:39:30.262Z,71.21
2022-08-20T13:41:58.071Z,70.70
2022-08-20T13:44:31.336Z,70.69
2022-08-20T13:47:01.473Z,70.38
2022-08-20T13:49:29.269Z,70.28
2022-08-20T13:52:01.713Z,70.28
2022-08-20T13:54:30.212Z,70.18
2022-08-20T13:57:05.991Z,69.56
2022-08-20T13:59:38.211Z,68.95
2022-08-20T14:02:07.531Z,68.69
2022-08-20T14:04:35.699Z,68.20
2022-08-20T14:07:11.645Z,67.75
2022-08-20T14:09:40.662Z,66.52
2022-08-20T14:12:09.588Z,67.46
2022-08-20T14:14:38.775Z,68.00
2022-08-20T14:17:17.258Z,68.63
2022-08-20T14:19:45.236Z,68.50
2022-08-20T14:22:13.253Z,68.44
2022-08-20T14:24:41.306Z,68.21
2022-08-20T14:27:10.402Z,68.02
2022-08-20T14:29:42.230Z,66.84
2022-08-20T14:32:11.042Z,67.06
2022-08-20T14:34:39.900Z,66.66
2022-08-20T14:37:12.920Z,67.53
2022-08-20T14:39:40.940Z,67.83
2022-08-20T14:42:09.222Z,67.25
2022-08-20T14:44:37.155Z,67.45
2022-08-20T14:47:17.982Z,67.23
2022-08-20T14:49:46.613Z,66.86
2022-08-20T14:52:16.890Z,67.04
2022-08-20T14:54:45.624Z,67.11
2022-08-20T14:57:16.074Z,67.58
2022-08-20T14:59:44.355Z,67.48
2022-08-20T15:02:14.439Z,67.15
2022-08-20T15:04:45.378Z,67.70
2022-08-20T15:07:25.493Z,68.22
2022-08-20T15:09:57.030Z,67.59
2022-08-20T15:12:25.776Z,68.00
2022-08-20T15:14:53.689Z,66.81
2022-08-20T15:17:24.159Z,66.77
2022-08-20T15:19:54.045Z,67.17
2022-08-20T15:22:23.476Z,67.06
2022-08-20T15:24:55.576Z,67.79
2022-08-20T15:27:26.714Z,68.82
2022-08-20T15:29:55.019Z,69.19
2022-08-20T15:32:22.982Z,69.91
2022-08-20T15:34:51.211Z,70.59
2022-08-20T15:37:22.415Z,71.96
2022-08-20T15:39:51.319Z,72.73
2022-08-20T15:42:20.127Z,71.83
2022-08-20T15:44:48.317Z,70.96
2022-08-20T15:47:25.234Z,71.35
2022-08-20T15:49:57.078Z,71.32
2022-08-20T15:52:32.205Z,71.12
2022-08-20T15:55:02.053Z,71.04
2022-08-20T15:57:42.082Z,71.43
2022-08-20T16:00:16.313Z,71.18
2022-08-20T16:03:17.210Z,71.36
2022-08-20T16:05:53.003Z,70.81
2022-08-20T16:08:49.562Z,70.77
2022-08-20T16:11:29.832Z,70.43
2022-08-20T16:14:04.585Z,70.28
2022-08-20T16:16:34.685Z,70.90
2022-08-20T16:19:04.114Z,71.16
2022-08-20T16:21:37.163Z,70.62
2022-08-20T16:24:07.755Z,71.12
2022-08-20T16:26:57.975Z,71.40
2022-08-20T16:29:32.769Z,71.97
2022-08-20T16:32:04.710Z,71.98
2022-08-20T16:34:37.941Z,72.14
2022-08-20T16:37:12.922Z,71.95
2022-08-20T16:39:49.855Z,72.10
2022-08-20T16:42:24.273Z,72.13
2022-08-20T16:44:57.741Z,72.33
2022-08-20T16:47:30.486Z,72.76
2022-08-20T16:50:01.723Z,72.44
2022-08-20T16:52:29.814Z,72.69
2022-08-20T16:54:59.280Z,72.21
2022-08-20T16:57:28.383Z,72.30
2022-08-20T17:00:07.832Z,72.66
2022-08-20T17:02:35.824Z,72.72
2022-08-20T17:05:04.845Z,72.79
2022-08-20T17:07:44.897Z,73.01
2022-08-20T17:10:21.328Z,72.87
2022-08-20T17:12:54.588Z,72.50
2022-08-20T17:15:26.641Z,72.37
2022-08-20T17:17:55.993Z,72.33
2022-08-20T17:20:28.054Z,72.28
2022-08-20T17:23:18.458Z,72.62
2022-08-20T17:25:57.796Z,72.81
2022-08-20T17:28:26.500Z,72.65
2022-08-20T17:30:54.839Z,72.51
2022-08-20T17:33:34.807Z,72.50
2022-08-20T17:36:11.216Z,72.66
2022-08-20T17:38:46.855Z,72.64
2022-08-20T17:41:24.395Z,73.02
2022-08-20T17:43:58.718Z,72.99
2022-08-20T17:46:30.338Z,72.90
2022-08-20T17:49:00.979Z,73.96
2022-08-20T17:51:34.809Z,74.52
2022-08-20T17:54:10.192Z,75.36
2022-08-20T17:56:41.937Z,75.76
2022-08-20T17:59:24.070Z,76.04
2022-08-20T18:02:04.964Z,76.16
2022-08-20T18:04:32.959Z,76.65
2022-08-20T18:07:09.420Z,77.02
2022-08-20T18:09:44.624Z,77.07
2022-08-20T18:12:34.298Z,76.73
2022-08-20T18:15:09.467Z,76.88
2022-08-20T18:18:08.721Z,76.78
2022-08-20T18:21:00.242Z,76.95
2022-08-20T18:23:31.128Z,76.81
2022-08-20T18:26:05.040Z,76.88
2022-08-20T18:28:39.563Z,77.19
2022-08-20T18:31:10.574Z,77.31
2022-08-20T18:33:42.114Z,77.75
2022-08-20T18:36:13.586Z,77.88
2022-08-20T18:38:43.071Z,78.51
2022-08-20T18:41:14.093Z,79.05
2022-08-20T18:43:44.487Z,79.75
2022-08-20T18:46:22.735Z,80.31
2022-08-20T18:48:53.350Z,80.63
2022-08-20T18:51:24.971Z,80.91
2022-08-20T18:53:52.983Z,81.57
2022-08-20T18:56:33.530Z,81.93
2022-08-20T18:59:07.056Z,82.62
2022-08-20T19:01:37.466Z,83.03
2022-08-20T19:04:18.218Z,83.32
2022-08-20T19:06:51.662Z,83.51
2022-08-20T19:09:45.233Z,83.86
2022-08-20T19:12:30.511Z,84.51
2022-08-20T19:15:07.454Z,84.41
2022-08-20T19:17:45.855Z,84.50
2022-08-20T19:20:19.039Z,84.15
2022-08-20T19:22:48.455Z,84.92
2022-08-20T19:25:28.204Z,85.17
2022-08-20T19:27:58.299Z,85.64
2022-08-20T19:30:38.703Z,86.25
2022-08-20T19:33:08.117Z,86.27
2022-08-20T19:35:37.708Z,86.58
2022-08-20T19:38:07.855Z,87.27
2022-08-20T19:40:40.145Z,87.53
2022-08-20T19:43:16.207Z,87.98
2022-08-20T19:45:49.360Z,88.47
2022-08-20T19:48:56.393Z,88.14
2022-08-20T19:51:31.677Z,88.55
2022-08-20T19:53:59.513Z,88.48
2022-08-20T19:56:29.033Z,88.53
2022-08-20T19:59:02.412Z,89.21
2022-08-20T20:01:32.542Z,89.15
2022-08-20T20:04:02.716Z,89.52
2022-08-20T20:06:34.696Z,89.71
2022-08-20T20:09:07.242Z,90.21
2022-08-20T20:11:37.647Z,90.32
2022-08-20T20:14:07.455Z,90.36
2022-08-20T20:16:38.432Z,90.88
2022-08-20T20:19:27.772Z,91.69
2022-08-20T20:22:10.405Z,92.07
2022-08-20T20:24:49.956Z,92.12
2022-08-20T20:27:23.262Z,92.60
2022-08-20T20:29:58.610Z,93.13
2022-08-20T20:32:30.389Z,93.06
2022-08-20T20:35:02.026Z,93.44
2022-08-20T20:37:50.087Z,93.40
2022-08-20T20:40:25.499Z,93.70
2022-08-20T20:43:03.003Z,93.82
2022-08-20T20:45:34.525Z,94.26
2022-08-20T20:48:19.262Z,94.24
2022-08-20T20:50:48.196Z,94.92
2022-08-20T20:53:40.302Z,95.23
2022-08-20T20:56:28.889Z,95.25
2022-08-20T20:58:57.037Z,95.29
2022-08-20T21:01:34.518Z,95.44
2022-08-20T21:04:14.416Z,95.59
2022-08-20T21:06:42.263Z,95.75
2022-08-20T21:09:10.217Z,95.95
2022-08-20T21:11:38.073Z,96.04
2022-08-20T21:14:05.981Z,96.05
2022-08-20T21:16:33.917Z,96.20
2022-08-20T21:19:02.169Z,96.30
2022-08-20T21:21:31.420Z,96.33
2022-08-20T21:23:59.247Z,96.44
2022-08-20T21:26:29.048Z,96.39
2022-08-20T21:28:57.073Z,96.94
2022-08-20T21:31:27.365Z,97.15
2022-08-20T21:33:55.252Z,97.50
2022-08-20T21:36:23.257Z,97.47
2022-08-20T21:38:52.485Z,97.76
2022-08-20T21:41:25.125Z,97.66
2022-08-20T21:43:58.645Z,97.82
2022-08-20T21:46:28.910Z,98.31
2022-08-20T21:48:57.304Z,98.46
2022-08-20T21:51:25.344Z,98.61
2022-08-20T21:53:54.578Z,98.85
2022-08-20T21:56:22.638Z,98.97
2022-08-20T21:58:51.659Z,99.64
2022-08-20T22:01:23.740Z,99.55
2022-08-20T22:03:52.097Z,99.97
2022-08-20T22:06:20.828Z,100.00
2022-08-20T22:08:48.646Z,100.00
2022-08-20T22:11:17.983Z,100.00
2022-08-20T22:13:46.307Z,100.00
2022-08-20T22:16:16.916Z,100.00
2022-08-20T22:18:45.285Z,100.00
2022-08-20T22:21:18.720Z,100.00
2022-08-20T22:23:46.996Z,100.00
2022-08-20T22:26:17.463Z,100.00
2022-08-20T22:28:50.982Z,100.00
2022-08-20T22:31:22.230Z,100.00
2022-08-20T22:33:50.084Z,100.00
2022-08-20T22:36:18.475Z,100.00
2022-08-20T22:38:47.294Z,100.00
2022-08-20T22:41:23.508Z,100.00
2022-08-20T22:43:57.161Z,100.00
2022-08-20T22:46:27.661Z,100.00
2022-08-20T22:48:56.077Z,100.00
2022-08-20T22:51:29.058Z,100.00
2022-08-20T22:53:58.725Z,100.00
2022-08-20T22:56:26.706Z,100.00
2022-08-20T22:58:59.419Z,100.00
2022-08-20T23:01:28.302Z,100.00
2022-08-20T23:03:58.279Z,100.00
2022-08-20T23:06:27.887Z,100.00
2022-08-20T23:08:55.687Z,100.00
2022-08-20T23:11:23.553Z,100.00
2022-08-20T23:13:51.411Z,100.00
2022-08-20T23:16:20.632Z,99.91
2022-08-20T23:18:48.501Z,99.68
2022-08-20T23:21:16.859Z,99.59
2022-08-20T23:23:44.657Z,99.74
2022-08-20T23:26:13.991Z,99.76
2022-08-20T23:28:41.813Z,99.55
2022-08-20T23:31:09.633Z,99.52
2022-08-20T23:33:42.934Z,100.00
2022-08-20T23:36:13.432Z,100.00
2022-08-20T23:38:42.583Z,100.00
2022-08-20T23:41:10.529Z,99.92
2022-08-20T23:43:38.399Z,99.85
2022-08-20T23:46:08.953Z,99.44
2022-08-20T23:48:38.487Z,99.04
2022-08-20T23:51:06.679Z,99.09
2022-08-20T23:53:34.467Z,98.81
2022-08-20T23:56:02.389Z,98.57
2022-08-20T23:58:30.288Z,97.92
